SBGO

Details ICAO SBGO (GYN)
Name Goiania Intl
Region Brazil
Timezone America/Sao_Paulo (UTC-3.0)
Plans Departing 919
Arriving 783
Stats Elevation 2,453 ft / 748 m (AMSL)
Location -16.631900° -49.221100°
Runways 1
Magnetic Variation 21.755° W
Sunrise 2024-06-20 09:45:45 UTC / 2024-06-20 06:45:45 Local
Sunset 2024-06-20 20:53:51 UTC / 2024-06-20 17:53:51 Local
Advertisement - Login to hide

Runways

ID Width Length Bearing (true/mag) Surface Threshold Overrun Markings Lighting
14 148 ft / 45 m 8,207 ft / 2,501 m 120.38° / 142.13° ASPHALT 705 ft / 215 m 0 ft / 0 m PREC-APP EDGE THRESHOLD REIL-OMNI
32 148 ft / 45 m 8,207 ft / 2,501 m 300.37° / 322.13° ASPHALT 0 ft / 0 m 0 ft / 0 m PREC-APP EDGE THRESHOLD REIL-OMNI

Map

Weather


0- 5 10 15 20 25 30 35+ Temperature / °C

Clouds and Precipitation
Forecast for 2024-04-15 18:00 UTC. Updated 2 months ago

Ground ~20,000 ft ~40,000 ft Winds

METAR

SBGO 201900Z 12008KT 9999 FEW045 29/13 Q1017

TAF

TAF SBGO 201430Z 2018/2118 10007KT CAVOK TX30/2019Z TN17/2109Z BECMG 2100/2102 00000KT BECMG 2107/2109 09007KT RMK PGG

Frequencies

Ground 121.70 MHz Goiania Ground
Approach 133.00 MHz Anapolis Approach
Recorded 127.67 MHz Goiania ATIS
Clearance 121.05 MHz Goiania Clearance
Approach 129.45 MHz Anapolis Approach
Tower 118.70 MHz Goiania Tower
Approach 119.15 MHz Anapolis Approach
Approach 120.55 MHz Anapolis Approach
Warning: Do not use this data for real-world aviation or navigation. No guarantee of current accuracy is given.